createdAt,value
2018-09-30T00:00:04.532Z,54.90
2018-09-30T00:01:06.683Z,54.90
2018-09-30T00:02:08.877Z,54.90
2018-09-30T00:03:11.014Z,54.90
2018-09-30T00:04:13.148Z,54.90
2018-09-30T00:05:15.297Z,54.90
2018-09-30T00:06:17.468Z,54.90
2018-09-30T00:07:19.638Z,54.90
2018-09-30T00:08:21.865Z,55.50
2018-09-30T00:09:29.822Z,54.80
2018-09-30T00:10:32.096Z,54.80
2018-09-30T00:11:34.266Z,54.80
2018-09-30T00:12:36.740Z,54.90
2018-09-30T00:13:38.885Z,55.10
2018-09-30T00:14:41.013Z,55.20
2018-09-30T00:15:43.133Z,55.70
2018-09-30T00:16:45.255Z,55.60
2018-09-30T00:17:47.392Z,55.80
2018-09-30T00:18:49.547Z,56.00
2018-09-30T00:19:51.680Z,55.90
2018-09-30T00:20:53.874Z,56.00
2018-09-30T00:21:56.033Z,56.20
2018-09-30T00:22:58.197Z,56.30
2018-09-30T00:24:06.089Z,56.30
2018-09-30T00:25:13.850Z,56.40
2018-09-30T00:26:21.796Z,56.10
2018-09-30T00:27:23.977Z,56.10
2018-09-30T00:28:26.134Z,55.80
2018-09-30T00:29:29.156Z,56.10
2018-09-30T00:30:31.312Z,56.00
2018-09-30T00:31:33.738Z,55.70
2018-09-30T00:32:35.872Z,55.60
2018-09-30T00:33:43.659Z,55.40
2018-09-30T00:34:45.781Z,55.30
2018-09-30T00:35:47.933Z,55.30
2018-09-30T00:36:50.090Z,56.00
2018-09-30T00:37:52.233Z,55.30
2018-09-30T00:38:54.405Z,55.20
2018-09-30T00:39:56.544Z,55.20
2018-09-30T00:40:58.690Z,55.10
2018-09-30T00:42:00.822Z,55.10
2018-09-30T00:43:02.973Z,55.10
2018-09-30T00:44:05.162Z,55.10
2018-09-30T00:45:07.287Z,55.70
2018-09-30T00:46:09.546Z,55.80
2018-09-30T00:47:11.674Z,55.80
2018-09-30T00:48:13.969Z,55.80
2018-09-30T00:49:16.142Z,55.80
2018-09-30T00:50:18.387Z,55.60
2018-09-30T00:51:20.548Z,55.60
2018-09-30T00:52:22.709Z,55.70
2018-09-30T00:53:24.865Z,55.70
2018-09-30T00:54:27.018Z,55.70
2018-09-30T00:55:29.172Z,55.80
2018-09-30T00:56:31.418Z,55.80
2018-09-30T00:57:33.576Z,55.90
2018-09-30T00:58:35.913Z,56.10
2018-09-30T00:59:38.067Z,55.90
2018-09-30T01:00:40.312Z,56.10
2018-09-30T01:01:42.493Z,56.00
2018-09-30T01:02:44.664Z,56.30
2018-09-30T01:03:46.786Z,56.30
2018-09-30T01:04:48.925Z,56.40
2018-09-30T01:05:51.062Z,56.30
2018-09-30T01:06:53.221Z,56.30
2018-09-30T01:07:55.413Z,56.30
2018-09-30T01:08:57.544Z,56.40
2018-09-30T01:09:59.692Z,56.30
2018-09-30T01:11:01.836Z,56.20
2018-09-30T01:12:03.978Z,56.30
2018-09-30T01:13:06.146Z,56.20
2018-09-30T01:14:08.320Z,56.30
2018-09-30T01:15:10.457Z,56.30
2018-09-30T01:16:12.618Z,56.30
2018-09-30T01:17:14.769Z,56.60
2018-09-30T01:18:16.937Z,56.40
2018-09-30T01:19:19.117Z,56.40
2018-09-30T01:20:21.245Z,56.40
2018-09-30T01:21:23.414Z,56.40
2018-09-30T01:22:25.589Z,56.40
2018-09-30T01:23:27.762Z,56.30
2018-09-30T01:24:29.912Z,56.30
2018-09-30T01:25:32.056Z,56.20
2018-09-30T01:26:34.209Z,56.20
2018-09-30T01:27:36.338Z,56.30
2018-09-30T01:28:38.648Z,56.40
2018-09-30T01:29:40.825Z,56.30
2018-09-30T01:30:42.955Z,56.30
2018-09-30T01:31:45.085Z,56.50
2018-09-30T01:32:47.216Z,56.50
2018-09-30T01:33:49.329Z,56.50
2018-09-30T01:34:51.474Z,56.50
2018-09-30T01:35:53.638Z,56.40
2018-09-30T01:36:55.825Z,56.50
2018-09-30T01:37:57.940Z,56.60
2018-09-30T01:39:00.134Z,56.70
2018-09-30T01:40:02.274Z,56.70
2018-09-30T01:41:04.425Z,56.70
2018-09-30T01:42:06.589Z,56.60
2018-09-30T01:43:08.746Z,56.70
2018-09-30T01:44:10.872Z,56.70
2018-09-30T01:45:12.997Z,56.70
2018-09-30T01:46:15.110Z,56.80
2018-09-30T01:47:17.264Z,56.90
2018-09-30T01:48:19.397Z,56.90
2018-09-30T01:49:21.537Z,56.80
2018-09-30T01:50:23.675Z,56.80
2018-09-30T01:51:25.804Z,56.60
2018-09-30T01:52:39.562Z,56.70
2018-09-30T01:53:41.685Z,56.80
2018-09-30T01:54:43.876Z,57.00
2018-09-30T01:55:46.033Z,56.90
2018-09-30T01:56:48.193Z,57.00
2018-09-30T01:57:50.365Z,56.90
2018-09-30T01:58:52.489Z,57.00
2018-09-30T01:59:54.602Z,57.00
2018-09-30T02:00:56.825Z,57.10
2018-09-30T02:01:58.957Z,57.10
2018-09-30T02:03:01.094Z,57.20
2018-09-30T02:04:03.241Z,57.30
2018-09-30T02:05:05.658Z,57.40
2018-09-30T02:06:07.801Z,57.50
2018-09-30T02:07:09.969Z,57.40
2018-09-30T02:08:12.124Z,57.90
2018-09-30T02:09:14.593Z,57.70
2018-09-30T02:10:16.942Z,57.50
2018-09-30T02:11:19.151Z,57.70
2018-09-30T02:12:21.341Z,57.80
2018-09-30T02:13:23.498Z,57.80
2018-09-30T02:14:25.629Z,57.90
2018-09-30T02:15:27.787Z,58.00
2018-09-30T02:16:29.920Z,58.00
2018-09-30T02:17:32.434Z,58.10
2018-09-30T02:18:34.555Z,58.10
2018-09-30T02:19:36.721Z,58.10
2018-09-30T02:20:38.865Z,58.10
2018-09-30T02:21:41.335Z,58.00
2018-09-30T02:22:43.501Z,58.10
2018-09-30T02:23:45.914Z,58.10
2018-09-30T02:24:48.122Z,57.70
2018-09-30T02:25:50.272Z,57.50
2018-09-30T02:26:52.401Z,57.80
2018-09-30T02:27:54.542Z,58.00
2018-09-30T02:28:56.669Z,58.00
2018-09-30T02:29:58.809Z,58.00
2018-09-30T02:31:00.961Z,58.00
2018-09-30T02:32:03.320Z,58.00
2018-09-30T02:33:05.479Z,58.00
2018-09-30T02:34:07.641Z,58.00
2018-09-30T02:35:09.794Z,58.10
2018-09-30T02:36:12.215Z,58.10
2018-09-30T02:37:14.641Z,58.10
2018-09-30T02:38:16.777Z,58.10
2018-09-30T02:39:18.917Z,58.00
2018-09-30T02:40:21.152Z,58.00
2018-09-30T02:41:23.337Z,58.00
2018-09-30T02:42:25.528Z,58.20
2018-09-30T02:43:27.698Z,58.30
2018-09-30T02:44:29.809Z,58.20
2018-09-30T02:45:31.981Z,58.40
2018-09-30T02:46:34.113Z,58.40
2018-09-30T02:47:36.247Z,58.50
2018-09-30T02:48:38.370Z,58.60
2018-09-30T02:49:40.544Z,58.60
2018-09-30T02:50:42.681Z,58.50
2018-09-30T02:51:44.863Z,58.90
2018-09-30T02:52:46.995Z,58.80
2018-09-30T02:53:49.129Z,58.70
2018-09-30T02:54:51.261Z,58.70
2018-09-30T02:55:53.473Z,58.50
2018-09-30T02:56:55.605Z,58.50
2018-09-30T02:57:57.782Z,58.30
2018-09-30T02:58:59.913Z,58.40
2018-09-30T03:00:02.079Z,58.40
2018-09-30T03:01:04.299Z,58.50
2018-09-30T03:02:06.436Z,58.50
2018-09-30T03:03:08.590Z,58.60
2018-09-30T03:04:10.729Z,58.70
2018-09-30T03:05:12.915Z,59.20
2018-09-30T03:06:20.766Z,58.50
2018-09-30T03:07:28.619Z,58.70
2018-09-30T03:09:37.885Z,58.70
2018-09-30T03:10:40.042Z,58.70
2018-09-30T03:11:42.453Z,58.70
2018-09-30T03:12:44.646Z,58.70
2018-09-30T03:13:46.877Z,58.50
2018-09-30T03:14:49.025Z,58.90
2018-09-30T03:15:51.205Z,58.50
2018-09-30T03:16:53.353Z,58.50
2018-09-30T03:17:55.562Z,58.50
2018-09-30T03:18:57.954Z,58.50
2018-09-30T03:20:00.077Z,58.70
2018-09-30T03:21:02.207Z,58.70
2018-09-30T03:22:04.694Z,58.60
2018-09-30T03:23:06.833Z,58.80
2018-09-30T03:25:18.590Z,58.80
2018-09-30T03:26:20.725Z,58.90
2018-09-30T03:27:22.951Z,59.00
2018-09-30T03:28:25.111Z,59.00
2018-09-30T03:29:27.256Z,59.10
2018-09-30T03:30:29.393Z,59.10
2018-09-30T03:31:31.539Z,59.10
2018-09-30T03:32:33.669Z,59.00
2018-09-30T03:33:35.817Z,59.10
2018-09-30T03:34:38.006Z,59.20
2018-09-30T03:35:40.168Z,59.70
2018-09-30T03:36:42.292Z,59.10
2018-09-30T03:37:44.447Z,59.10
2018-09-30T03:38:46.617Z,59.10
2018-09-30T03:39:48.770Z,59.00
2018-09-30T03:40:50.949Z,59.00
2018-09-30T03:41:53.108Z,59.00
2018-09-30T03:42:55.246Z,59.00
2018-09-30T03:43:57.409Z,59.00
2018-09-30T03:44:59.637Z,59.00
2018-09-30T03:46:01.789Z,59.90
2018-09-30T03:47:03.970Z,59.10
2018-09-30T03:48:06.121Z,59.20
2018-09-30T03:49:08.245Z,59.20
2018-09-30T03:50:10.394Z,59.20
2018-09-30T03:51:12.580Z,59.20
2018-09-30T03:52:14.730Z,59.20
2018-09-30T03:53:16.857Z,59.10
2018-09-30T03:54:18.992Z,59.10
2018-09-30T03:55:21.158Z,59.20
2018-09-30T03:56:23.319Z,59.20
2018-09-30T03:57:25.463Z,59.30
2018-09-30T03:58:27.647Z,59.40
2018-09-30T03:59:29.749Z,59.40
2018-09-30T04:00:31.928Z,59.50
2018-09-30T04:01:34.121Z,59.40
2018-09-30T04:02:36.244Z,59.40
2018-09-30T04:03:38.382Z,59.40
2018-09-30T04:04:40.558Z,59.40
2018-09-30T04:05:42.689Z,59.80
2018-09-30T04:06:44.878Z,59.50
2018-09-30T04:07:47.054Z,59.60
2018-09-30T04:08:49.517Z,59.50
2018-09-30T04:09:51.681Z,59.60
2018-09-30T04:10:53.829Z,59.70
2018-09-30T04:11:55.974Z,59.90
2018-09-30T04:12:58.173Z,59.90
2018-09-30T04:14:00.304Z,59.80
2018-09-30T04:15:02.470Z,59.70
2018-09-30T04:16:04.665Z,59.70
2018-09-30T04:17:06.894Z,59.70
2018-09-30T04:18:08.961Z,60.10
2018-09-30T04:19:11.127Z,59.70
2018-09-30T04:20:13.281Z,60.00
2018-09-30T04:21:15.462Z,59.70
2018-09-30T04:22:17.591Z,59.70
2018-09-30T04:23:19.742Z,59.80
2018-09-30T04:24:21.930Z,59.90
2018-09-30T04:25:24.150Z,59.90
2018-09-30T04:26:26.305Z,60.00
2018-09-30T04:27:28.477Z,59.80
2018-09-30T04:28:30.702Z,59.90
2018-09-30T04:29:32.878Z,59.80
2018-09-30T04:30:35.055Z,59.80
2018-09-30T04:31:37.193Z,59.90
2018-09-30T04:32:39.343Z,59.90
2018-09-30T04:33:41.497Z,59.90
2018-09-30T04:34:43.663Z,59.90
2018-09-30T04:35:45.840Z,59.90
2018-09-30T04:36:47.991Z,59.80
2018-09-30T04:37:50.390Z,59.80
2018-09-30T04:38:52.708Z,60.00
2018-09-30T04:39:55.202Z,59.90
2018-09-30T04:40:57.366Z,59.70
2018-09-30T04:41:59.570Z,59.90
2018-09-30T04:43:01.750Z,59.90
2018-09-30T04:44:04.216Z,59.90
2018-09-30T04:45:06.426Z,59.90
2018-09-30T04:46:08.550Z,59.90
2018-09-30T04:47:10.716Z,59.90
2018-09-30T04:48:12.921Z,60.00
2018-09-30T04:49:15.088Z,59.90
2018-09-30T04:50:17.295Z,60.50
2018-09-30T04:51:19.461Z,59.80
2018-09-30T04:52:21.630Z,59.80
2018-09-30T04:53:23.788Z,59.80
2018-09-30T04:54:25.940Z,59.70
2018-09-30T04:55:28.221Z,59.80
2018-09-30T04:56:30.405Z,59.80
2018-09-30T04:57:32.538Z,60.50
2018-09-30T04:58:34.928Z,59.80
2018-09-30T04:59:37.080Z,59.70
2018-09-30T05:00:39.193Z,59.50
2018-09-30T05:01:41.342Z,59.50
2018-09-30T05:02:43.485Z,59.60
2018-09-30T05:03:45.609Z,59.70
2018-09-30T05:04:47.845Z,60.70
2018-09-30T05:05:50.030Z,60.90
2018-09-30T05:06:52.103Z,61.00
2018-09-30T05:07:54.418Z,60.90
2018-09-30T05:08:56.576Z,61.20
2018-09-30T05:09:58.744Z,61.20
2018-09-30T05:11:00.937Z,61.30
2018-09-30T05:12:03.201Z,61.20
2018-09-30T05:13:05.346Z,61.40
2018-09-30T05:14:07.487Z,61.70
2018-09-30T05:15:09.649Z,61.60
2018-09-30T05:16:11.842Z,61.50
2018-09-30T05:17:13.973Z,61.40
2018-09-30T05:18:16.115Z,61.20
2018-09-30T05:19:18.271Z,61.20
2018-09-30T05:20:20.406Z,61.30
2018-09-30T05:21:22.602Z,61.50
2018-09-30T05:22:24.757Z,61.40
2018-09-30T05:23:26.906Z,61.40
2018-09-30T05:24:29.083Z,61.60
2018-09-30T05:25:31.299Z,61.60
2018-09-30T05:26:33.407Z,61.70
2018-09-30T05:27:35.566Z,61.60
2018-09-30T05:28:37.686Z,62.00
2018-09-30T05:29:39.913Z,62.00
2018-09-30T05:30:42.083Z,62.00
2018-09-30T05:31:44.257Z,62.00
2018-09-30T05:32:46.398Z,61.90
2018-09-30T05:33:48.526Z,61.90
2018-09-30T05:34:50.699Z,61.70
2018-09-30T05:35:52.873Z,61.70
2018-09-30T05:36:55.041Z,61.70
2018-09-30T05:37:57.316Z,62.00
2018-09-30T05:38:59.445Z,61.70
2018-09-30T05:40:01.626Z,62.00
2018-09-30T05:41:03.789Z,63.30
2018-09-30T05:42:05.973Z,62.50
2018-09-30T05:43:08.106Z,62.50
2018-09-30T05:44:10.249Z,62.50
2018-09-30T05:45:12.396Z,62.20
2018-09-30T05:46:14.611Z,62.40
2018-09-30T05:47:16.774Z,62.40
2018-09-30T05:48:18.893Z,62.50
2018-09-30T05:49:21.272Z,62.40
2018-09-30T05:50:23.465Z,62.40
2018-09-30T05:51:25.968Z,62.40
2018-09-30T05:52:28.145Z,62.40
2018-09-30T05:53:30.294Z,62.40
2018-09-30T05:54:32.438Z,62.40
2018-09-30T05:55:34.584Z,63.30
2018-09-30T05:56:36.720Z,62.40
2018-09-30T05:57:38.909Z,62.40
2018-09-30T05:58:41.266Z,62.30
2018-09-30T05:59:43.414Z,62.30
2018-09-30T06:00:45.626Z,62.80
2018-09-30T06:01:47.774Z,62.90
2018-09-30T06:02:49.917Z,62.90
2018-09-30T06:03:52.089Z,63.00
2018-09-30T06:04:54.213Z,63.00
2018-09-30T06:05:56.375Z,62.90
2018-09-30T06:06:58.811Z,62.80
2018-09-30T06:08:00.949Z,62.60
2018-09-30T06:09:05.789Z,62.30
2018-09-30T06:10:07.967Z,62.50
2018-09-30T06:11:10.136Z,62.60
2018-09-30T06:12:12.282Z,62.60
2018-09-30T06:13:14.438Z,62.50
2018-09-30T06:14:16.721Z,62.50
2018-09-30T06:15:18.764Z,62.30
2018-09-30T06:16:20.911Z,62.30
2018-09-30T06:17:23.073Z,62.30
2018-09-30T06:18:25.532Z,61.90
2018-09-30T06:19:27.901Z,61.70
2018-09-30T06:20:30.113Z,61.60
2018-09-30T06:21:32.310Z,61.50
2018-09-30T06:22:34.469Z,61.50
2018-09-30T06:23:36.630Z,61.20
2018-09-30T06:24:38.802Z,61.20
2018-09-30T06:25:40.949Z,61.20
2018-09-30T06:26:43.113Z,61.90
2018-09-30T06:27:45.258Z,61.10
2018-09-30T06:28:47.388Z,61.30
2018-09-30T06:29:49.533Z,61.50
2018-09-30T06:30:51.822Z,61.30
2018-09-30T06:31:54.060Z,61.50
2018-09-30T06:32:56.201Z,61.40
2018-09-30T06:33:58.361Z,61.50
2018-09-30T06:35:00.641Z,61.40
2018-09-30T06:36:02.901Z,60.90
2018-09-30T06:37:05.068Z,60.70
2018-09-30T06:38:07.239Z,60.70
2018-09-30T06:39:09.865Z,60.80
2018-09-30T06:40:12.070Z,61.00
2018-09-30T06:41:14.246Z,60.60
2018-09-30T06:42:16.436Z,60.70
2018-09-30T06:43:18.581Z,60.70
2018-09-30T06:44:20.705Z,60.70
2018-09-30T06:45:22.906Z,60.80
2018-09-30T06:46:25.042Z,60.70
2018-09-30T06:47:27.198Z,61.20
2018-09-30T06:48:29.365Z,60.80
2018-09-30T06:49:31.561Z,60.80
2018-09-30T06:50:33.753Z,60.70
2018-09-30T06:51:35.842Z,60.40
2018-09-30T06:52:37.999Z,60.50
2018-09-30T06:53:40.360Z,60.60
2018-09-30T06:54:42.490Z,60.60
2018-09-30T06:55:44.620Z,60.50
2018-09-30T06:56:46.931Z,60.40
2018-09-30T06:57:49.074Z,60.30
2018-09-30T06:58:51.225Z,60.30
2018-09-30T06:59:53.349Z,60.40
2018-09-30T07:00:55.493Z,60.10
2018-09-30T07:01:57.638Z,58.80
2018-09-30T07:02:59.760Z,58.60
2018-09-30T07:04:02.042Z,58.60
2018-09-30T07:05:04.281Z,58.60
2018-09-30T07:06:06.487Z,58.50
2018-09-30T07:07:08.669Z,58.50
2018-09-30T07:08:10.889Z,58.70
2018-09-30T07:09:13.064Z,58.70
2018-09-30T07:10:15.208Z,58.70
2018-09-30T07:11:17.358Z,58.30
2018-09-30T07:12:19.537Z,58.20
2018-09-30T07:13:21.653Z,58.20
2018-09-30T07:14:23.825Z,57.90
2018-09-30T07:15:26.037Z,57.90
2018-09-30T07:16:28.228Z,58.20
2018-09-30T07:17:30.429Z,58.10
2018-09-30T07:18:32.607Z,57.80
2018-09-30T07:19:34.746Z,57.80
2018-09-30T07:20:37.000Z,57.80
2018-09-30T07:21:39.161Z,57.90
2018-09-30T07:22:41.337Z,57.90
2018-09-30T07:23:43.492Z,57.90
2018-09-30T07:24:45.686Z,57.90
2018-09-30T07:25:47.853Z,57.80
2018-09-30T07:26:49.998Z,57.40
2018-09-30T07:27:52.183Z,57.50
2018-09-30T07:28:54.333Z,57.40
2018-09-30T07:29:56.513Z,57.40
2018-09-30T07:30:58.681Z,57.10
2018-09-30T07:32:00.806Z,57.00
2018-09-30T07:33:03.100Z,57.00
2018-09-30T07:34:05.221Z,56.80
2018-09-30T07:35:07.443Z,57.00
2018-09-30T07:36:09.569Z,57.00
2018-09-30T07:37:11.743Z,56.90
2018-09-30T07:38:13.877Z,57.10
2018-09-30T07:39:16.052Z,57.20
2018-09-30T07:40:18.169Z,57.10
2018-09-30T07:41:20.599Z,57.10
2018-09-30T07:42:22.761Z,56.80
2018-09-30T07:43:24.907Z,56.70
2018-09-30T07:44:27.085Z,56.50
2018-09-30T07:45:29.285Z,56.50
2018-09-30T07:46:31.595Z,56.30
2018-09-30T07:47:33.783Z,57.20
2018-09-30T07:48:35.918Z,56.30
2018-09-30T07:49:38.045Z,56.90
2018-09-30T07:50:40.249Z,56.00
2018-09-30T07:51:42.434Z,56.10
2018-09-30T07:52:44.661Z,56.80
2018-09-30T07:53:46.835Z,55.80
2018-09-30T07:54:49.033Z,55.90
2018-09-30T07:55:51.226Z,56.20
2018-09-30T07:56:53.445Z,56.10
2018-09-30T07:57:55.628Z,56.80
2018-09-30T07:58:57.786Z,56.00
2018-09-30T07:59:59.955Z,55.80
2018-09-30T08:01:02.167Z,55.80
2018-09-30T08:02:04.336Z,55.40
2018-09-30T08:03:06.569Z,55.90
2018-09-30T08:04:08.733Z,55.20
2018-09-30T08:05:10.948Z,55.50
2018-09-30T08:06:13.134Z,55.40
2018-09-30T08:07:15.354Z,55.30
2018-09-30T08:08:17.522Z,55.40
2018-09-30T08:09:19.674Z,55.10
2018-09-30T08:10:21.843Z,55.20
2018-09-30T08:11:24.203Z,55.20
2018-09-30T08:12:26.483Z,55.20
2018-09-30T08:13:29.622Z,56.10
2018-09-30T08:14:31.821Z,55.70
2018-09-30T08:15:34.026Z,55.70
2018-09-30T08:16:36.268Z,55.70
2018-09-30T08:17:38.377Z,54.90
2018-09-30T08:18:40.961Z,55.10
2018-09-30T08:19:43.102Z,55.10
2018-09-30T08:20:45.265Z,55.20
2018-09-30T08:21:47.441Z,55.30
2018-09-30T08:22:49.645Z,55.30
2018-09-30T08:23:51.844Z,55.40
2018-09-30T08:24:53.982Z,55.20
2018-09-30T08:25:56.157Z,55.40
2018-09-30T08:26:58.328Z,55.00
2018-09-30T08:28:00.516Z,54.90
2018-09-30T08:29:02.702Z,55.00
2018-09-30T08:30:04.910Z,54.70
2018-09-30T08:31:07.356Z,54.60
2018-09-30T08:32:09.535Z,54.90
2018-09-30T08:33:11.716Z,54.80
2018-09-30T08:34:15.182Z,54.60
2018-09-30T08:35:17.783Z,54.50
2018-09-30T08:36:19.953Z,54.50
2018-09-30T08:37:27.746Z,54.40
2018-09-30T08:38:31.794Z,54.50
2018-09-30T08:39:34.118Z,54.80
2018-09-30T08:40:42.086Z,54.50
2018-09-30T08:41:44.281Z,54.80
2018-09-30T08:42:46.462Z,54.80
2018-09-30T08:43:48.632Z,54.90
2018-09-30T08:44:50.808Z,54.70
2018-09-30T08:45:53.081Z,54.90
2018-09-30T08:46:55.239Z,54.70
2018-09-30T08:47:57.797Z,55.10
2018-09-30T08:49:00.222Z,54.70
2018-09-30T08:50:02.396Z,55.00
2018-09-30T08:51:04.666Z,54.70
2018-09-30T08:52:07.256Z,54.90
2018-09-30T08:53:09.633Z,54.70
2018-09-30T08:54:11.841Z,54.50
2018-09-30T08:55:14.117Z,54.50
2018-09-30T08:56:16.357Z,54.70
2018-09-30T08:57:18.869Z,54.50
2018-09-30T08:58:21.046Z,54.10
2018-09-30T08:59:23.213Z,54.10
2018-09-30T09:00:25.454Z,54.40
2018-09-30T09:01:27.766Z,54.40
2018-09-30T09:02:30.075Z,54.10
2018-09-30T09:03:32.285Z,54.20
2018-09-30T09:04:34.468Z,54.50
2018-09-30T09:05:36.614Z,54.40
2018-09-30T09:06:38.804Z,54.20
2018-09-30T09:07:40.962Z,54.30
2018-09-30T09:08:43.110Z,54.50
2018-09-30T09:09:45.415Z,55.10
2018-09-30T09:10:47.762Z,54.10
2018-09-30T09:11:49.928Z,54.20
2018-09-30T09:12:52.248Z,54.20
2018-09-30T09:13:54.393Z,54.20
2018-09-30T09:14:56.552Z,54.10
2018-09-30T09:15:58.725Z,54.20
2018-09-30T09:17:00.945Z,53.80
2018-09-30T09:18:03.146Z,54.00
2018-09-30T09:19:05.319Z,53.70
2018-09-30T09:20:07.477Z,53.80
2018-09-30T09:21:09.637Z,53.70
2018-09-30T09:22:12.216Z,53.40
2018-09-30T09:23:14.461Z,53.50
2018-09-30T09:24:16.622Z,53.50
2018-09-30T09:25:18.861Z,53.10
2018-09-30T09:26:21.041Z,53.20
2018-09-30T09:27:23.275Z,53.00
2018-09-30T09:28:25.456Z,53.10
2018-09-30T09:29:27.626Z,53.00
2018-09-30T09:30:29.890Z,53.00
2018-09-30T09:31:32.078Z,53.00
2018-09-30T09:32:37.263Z,53.00
2018-09-30T09:33:39.437Z,53.00
2018-09-30T09:34:41.583Z,53.00
2018-09-30T09:35:43.892Z,53.30
2018-09-30T09:36:46.047Z,53.10
2018-09-30T09:37:48.214Z,53.10
2018-09-30T09:38:50.396Z,52.70
2018-09-30T09:39:52.648Z,52.60
2018-09-30T09:40:54.809Z,52.80
2018-09-30T09:41:56.966Z,52.50
2018-09-30T09:42:59.120Z,52.50
2018-09-30T09:44:01.525Z,52.30
2018-09-30T09:45:03.849Z,52.00
2018-09-30T09:46:06.162Z,52.70
2018-09-30T09:47:08.463Z,52.10
2018-09-30T09:48:10.577Z,52.30
2018-09-30T09:49:12.821Z,53.20
2018-09-30T09:50:14.999Z,52.50
2018-09-30T09:51:17.194Z,52.40
2018-09-30T09:52:19.385Z,52.40
2018-09-30T09:53:21.614Z,52.50
2018-09-30T09:54:23.797Z,52.40
2018-09-30T09:55:26.025Z,52.40
2018-09-30T09:56:28.228Z,52.20
2018-09-30T09:57:30.370Z,53.00
2018-09-30T09:58:32.550Z,52.50
2018-09-30T09:59:34.788Z,52.40
2018-09-30T10:00:43.345Z,52.50
2018-09-30T10:01:45.482Z,52.60
2018-09-30T10:02:47.649Z,52.60
2018-09-30T10:03:49.798Z,52.20
2018-09-30T10:04:52.013Z,52.10
2018-09-30T10:05:54.169Z,52.10
2018-09-30T10:06:56.305Z,52.40
2018-09-30T10:07:58.450Z,52.30
2018-09-30T10:09:00.629Z,51.70
2018-09-30T10:10:02.802Z,52.00
2018-09-30T10:11:05.015Z,51.80
2018-09-30T10:12:07.186Z,51.40
2018-09-30T10:13:09.737Z,51.40
2018-09-30T10:14:11.970Z,51.60
2018-09-30T10:15:14.296Z,51.40
2018-09-30T10:16:16.639Z,50.60
2018-09-30T10:17:18.814Z,50.50
2018-09-30T10:18:20.993Z,50.10
2018-09-30T10:19:23.237Z,50.50
2018-09-30T10:20:25.498Z,50.20
2018-09-30T10:21:27.872Z,49.90
2018-09-30T10:22:30.044Z,50.20
2018-09-30T10:23:32.232Z,49.90
2018-09-30T10:24:34.385Z,49.90
2018-09-30T10:25:36.630Z,50.60
2018-09-30T10:26:38.781Z,50.10
2018-09-30T10:27:40.992Z,49.90
2018-09-30T10:28:43.138Z,50.00
2018-09-30T10:29:45.269Z,50.00
2018-09-30T10:30:47.433Z,50.00
2018-09-30T10:31:49.600Z,49.80
2018-09-30T10:32:51.768Z,50.00
2018-09-30T10:33:53.940Z,50.70
2018-09-30T10:34:56.100Z,49.60
2018-09-30T10:35:58.258Z,49.60
2018-09-30T10:37:00.400Z,49.60
2018-09-30T10:38:02.592Z,49.30
2018-09-30T10:39:06.976Z,49.40
2018-09-30T10:40:08.913Z,49.60
2018-09-30T10:41:11.057Z,49.50
2018-09-30T10:42:13.201Z,49.00
2018-09-30T10:43:15.394Z,49.20
2018-09-30T10:44:17.710Z,49.50
2018-09-30T10:45:19.932Z,49.20
2018-09-30T10:46:22.276Z,49.10
2018-09-30T10:47:24.497Z,49.80
2018-09-30T10:48:26.763Z,49.10
2018-09-30T10:49:30.862Z,49.10
2018-09-30T10:50:33.386Z,49.30
2018-09-30T10:51:35.655Z,49.20
2018-09-30T10:52:37.895Z,48.90
2018-09-30T10:53:40.133Z,49.40
2018-09-30T10:54:42.337Z,48.80
2018-09-30T10:55:44.485Z,48.70
2018-09-30T10:56:46.705Z,48.80
2018-09-30T10:57:48.842Z,48.50
2018-09-30T10:58:50.994Z,48.70
2018-09-30T10:59:53.137Z,48.50
2018-09-30T11:00:55.299Z,48.70
2018-09-30T11:01:57.517Z,48.50
2018-09-30T11:02:59.701Z,48.50
2018-09-30T11:04:01.916Z,48.60
2018-09-30T11:05:04.135Z,48.60
2018-09-30T11:06:06.545Z,48.50
2018-09-30T11:07:08.950Z,48.70
2018-09-30T11:08:11.093Z,48.70
2018-09-30T11:09:13.294Z,48.50
2018-09-30T11:10:15.538Z,48.60
2018-09-30T11:11:17.697Z,48.60
2018-09-30T11:12:20.061Z,48.70
2018-09-30T11:13:22.255Z,48.30
2018-09-30T11:14:24.541Z,48.40
2018-09-30T11:15:26.756Z,48.10
2018-09-30T11:16:28.925Z,48.10
2018-09-30T11:17:31.128Z,48.00
2018-09-30T11:18:33.356Z,48.00
2018-09-30T11:19:36.664Z,47.80
2018-09-30T11:20:38.802Z,48.00
2018-09-30T11:21:40.979Z,47.70
2018-09-30T11:22:43.124Z,47.70
2018-09-30T11:23:45.317Z,47.70
2018-09-30T11:24:47.571Z,47.70
2018-09-30T11:25:49.765Z,47.20
2018-09-30T11:26:51.972Z,47.10
2018-09-30T11:27:54.222Z,47.20
2018-09-30T11:28:56.391Z,47.40
2018-09-30T11:29:58.573Z,47.80
2018-09-30T11:31:00.750Z,47.10
2018-09-30T11:32:03.027Z,47.20
2018-09-30T11:33:05.228Z,47.20
2018-09-30T11:34:07.388Z,47.20
2018-09-30T11:35:09.569Z,47.20
2018-09-30T11:36:11.733Z,47.10
2018-09-30T11:37:20.553Z,47.20
2018-09-30T11:38:22.750Z,47.20
2018-09-30T11:39:24.977Z,46.80
2018-09-30T11:40:27.128Z,47.20
2018-09-30T11:41:29.263Z,47.20
2018-09-30T11:42:31.421Z,47.20
2018-09-30T11:43:33.679Z,47.20
2018-09-30T11:44:35.833Z,47.20
2018-09-30T11:45:38.013Z,47.30
2018-09-30T11:46:40.669Z,47.30
2018-09-30T11:47:42.821Z,47.30
2018-09-30T11:48:44.956Z,47.40
2018-09-30T11:49:47.106Z,47.40
2018-09-30T11:50:49.267Z,46.90
2018-09-30T11:51:51.524Z,46.70
2018-09-30T11:52:53.690Z,47.00
2018-09-30T11:53:55.832Z,47.00
2018-09-30T11:54:57.963Z,46.80
2018-09-30T11:56:00.097Z,46.50
2018-09-30T11:57:02.246Z,46.80
2018-09-30T11:58:04.506Z,46.60
2018-09-30T11:59:06.681Z,46.80
2018-09-30T12:00:08.874Z,46.70
2018-09-30T12:01:11.053Z,46.60
2018-09-30T12:02:13.256Z,47.50
2018-09-30T12:03:15.394Z,46.70
2018-09-30T12:04:17.860Z,46.10
2018-09-30T12:05:20.153Z,46.10
2018-09-30T12:06:22.297Z,46.20
2018-09-30T12:07:24.642Z,46.20
2018-09-30T12:08:27.094Z,46.10
2018-09-30T12:09:29.250Z,46.40
2018-09-30T12:10:31.427Z,46.20
2018-09-30T12:11:33.963Z,46.80
2018-09-30T12:12:36.198Z,45.90
2018-09-30T12:13:38.368Z,45.80
2018-09-30T12:14:40.528Z,45.70
2018-09-30T12:15:42.818Z,45.60
2018-09-30T12:16:44.949Z,45.80
2018-09-30T12:17:47.103Z,45.70
2018-09-30T12:18:49.332Z,46.00
2018-09-30T12:19:51.396Z,45.70
2018-09-30T12:20:53.546Z,45.00
2018-09-30T12:21:55.686Z,45.20
2018-09-30T12:22:57.904Z,46.30
2018-09-30T12:24:00.041Z,45.40
2018-09-30T12:25:02.182Z,45.40
2018-09-30T12:26:04.388Z,45.20
2018-09-30T12:27:06.548Z,45.70
2018-09-30T12:28:08.681Z,45.20
2018-09-30T12:29:10.846Z,45.10
2018-09-30T12:30:12.984Z,45.00
2018-09-30T12:31:15.202Z,45.10
2018-09-30T12:32:17.444Z,45.20
2018-09-30T12:33:19.632Z,45.00
2018-09-30T12:34:21.876Z,45.00
2018-09-30T12:35:24.197Z,45.00
2018-09-30T12:36:26.359Z,44.70
2018-09-30T12:37:28.706Z,44.80
2018-09-30T12:38:31.578Z,44.90
2018-09-30T12:39:33.860Z,44.80
2018-09-30T12:40:36.104Z,44.80
2018-09-30T12:41:38.478Z,45.00
2018-09-30T12:42:40.702Z,44.80
2018-09-30T12:43:42.913Z,44.80
2018-09-30T12:44:45.090Z,44.60
2018-09-30T12:45:47.277Z,44.50
2018-09-30T12:46:49.438Z,44.70
2018-09-30T12:47:51.592Z,44.40
2018-09-30T12:48:53.739Z,44.30
2018-09-30T12:49:55.894Z,44.40
2018-09-30T12:50:58.052Z,43.80
2018-09-30T12:52:00.701Z,44.40
2018-09-30T12:53:02.888Z,44.40
2018-09-30T12:54:05.069Z,44.30
2018-09-30T12:55:07.305Z,44.20
2018-09-30T12:56:09.476Z,43.70
2018-09-30T12:57:11.654Z,44.00
2018-09-30T12:58:13.858Z,43.90
2018-09-30T12:59:16.025Z,44.10
2018-09-30T13:00:18.197Z,44.10
2018-09-30T13:01:20.378Z,44.00
2018-09-30T13:02:22.652Z,44.10
2018-09-30T13:03:24.801Z,43.80
2018-09-30T13:04:26.969Z,43.60
2018-09-30T13:05:29.115Z,43.70
2018-09-30T13:06:31.314Z,43.70
2018-09-30T13:07:33.494Z,43.80
2018-09-30T13:08:35.754Z,43.50
2018-09-30T13:09:37.957Z,43.50
2018-09-30T13:10:40.098Z,43.00
2018-09-30T13:11:42.265Z,43.40
2018-09-30T13:12:44.421Z,43.30
2018-09-30T13:13:46.601Z,43.20
2018-09-30T13:14:48.793Z,42.70
2018-09-30T13:15:50.938Z,42.80
2018-09-30T13:16:53.150Z,42.60
2018-09-30T13:17:55.308Z,42.60
2018-09-30T13:18:57.525Z,42.70
2018-09-30T13:21:08.661Z,42.70
2018-09-30T13:22:10.902Z,42.60
2018-09-30T13:23:13.052Z,42.50
2018-09-30T13:24:15.308Z,42.70
2018-09-30T13:25:17.420Z,42.10